Terminal Aerodrome Forecast
Issued by NWS Milwaukee/Sullivan, WI

Home | Current Version | Previous Version | Text Only | Print | Product List | Glossary On
Versions: 1 2 3 4 5 6 7 8 9 10 11 12 13 14 15 16 17 18 19 20 21 22 23 24 25 26 27 28 29 30 31 32 33 34 35
000
FTUS43 KMKX 012335
TAFMSN
TAF
KMSN 012335Z 0200/0224 VRB03KT P6SM SKC
     FM020600 22004KT P6SM FEW120 SCT150
     FM020900 21006KT P6SM VCTS BKN080CB
     FM021100 23009KT P6SM BKN080 WS020/25040KT
     FM021500 23013G22KT P6SM SCT080
     FM022100 26014G25KT P6SM SCT050=

USA.gov is the U.S. government's official web portal to all federal, state and local government web resources and services.